OOCL Kaohsiung — 9V9830 — position and weather

sailwx.info

Track history (hours):
 
Tides and Currents Weather Stations Pressure Air Temp Water Temp Dewpoint Dewpoint Depression Visibility Wind Speed Wind Dir Waves Ship Positions

OOCL Kaohsiung

Last reported at 2014-Nov-14 12:33 UTC. Time now 2014-Nov-28 12:03 UTC.
Position N 36°32' E 014°20'.
Warning: this ship's position is 13 days out of date.

Length 280 m; draft 12.6 m.

Type: Cargo ship. MMSI: 566389000.

Date/timePositionNaut miles runAvg speedWind from/ knotsBaromVisibWave heightAir tempDewpointWater temp
2014-Nov-14 12:33N 36°32' E 014°20'2020.2
2014-Nov-14 11:33N 36°41' E 013°58'2020.4
2014-Nov-14 10:33N 36°51' E 013°36'22619.8
2014-Nov-13 23:10N 38°51' E 009°34'1219.4
2014-Nov-13 22:33N 38°57' E 009°21'1615.7
2014-Nov-13 21:33N 39°08' E 009°05'5 5.0
2014-Nov-13 20:31N 39°13' E 009°04'0 0.0
2014-Nov-13 19:31N 39°13' E 009°04'0 0.0
2014-Nov-13 18:33N 39°13' E 009°04'0 0.0
2014-Nov-13 17:33N 39°13' E 009°04'0 0.0
2014-Nov-13 16:33N 39°13' E 009°04'0 0.0
2014-Nov-13 15:33N 39°13' E 009°04'0 0.0
2014-Nov-13 14:33N 39°13' E 009°04'0 0.0
2014-Nov-13 13:33N 39°13' E 009°04'0 0.0
2014-Nov-13 12:33N 39°13' E 009°04'0 0.0
2014-Nov-13 11:33N 39°13' E 009°04'0 0.0
2014-Nov-13 10:33N 39°13' E 009°04'0 0.0
2014-Nov-13 09:33N 39°13' E 009°04'0 0.0
2014-Nov-13 08:33N 39°13' E 009°04'0 0.0
2014-Nov-13 07:33N 39°13' E 009°04'0 0.0
2014-Nov-13 06:33N 39°13' E 009°04'0 0.0
2014-Nov-13 05:33N 39°13' E 009°04'0 0.0
2014-Nov-13 04:33N 39°13' E 009°04'0 0.1
2014-Nov-13 03:33N 39°13' E 009°04'4 4.4
2014-Nov-13 02:33N 39°09' E 009°05'10 9.6
2014-Nov-13 01:33N 38°59' E 009°06'1312.6
2014-Nov-13 00:32N 38°49' E 008°56'1413.7
2014-Nov-12 23:33N 38°45' E 008°39'68816.4
2014-Nov-11 05:33N 35°59' W 005°21'3020.2
2014-Nov-11 04:03N 35°54' W 005°58'84218.5
2014-Nov-09 06:33N 36°07' W 023°19'2019.6
2014-Nov-09 05:33N 36°07' W 023°43'2019.8
2014-Nov-09 04:33N 36°07' W 024°07'2019.5
2014-Nov-09 03:33N 36°07' W 024°32'2019.6
2014-Nov-09 02:33N 36°07' W 024°56'1919.5
2014-Nov-09 01:33N 36°07' W 025°20'1919.3
2014-Nov-09 00:33N 36°08' W 025°44'1919.3
2014-Nov-08 23:33N 36°08' W 026°08'1919.1
2014-Nov-08 22:33N 36°09' W 026°31'1919.0
2014-Nov-08 21:33N 36°10' W 026°55'1919.1
2014-Nov-08 20:33N 36°10' W 027°19'1919.0
2014-Nov-08 19:33N 36°09' W 027°42'1918.9
2014-Nov-08 18:33N 36°09' W 028°06'2019.3
2014-Nov-08 17:32N 36°10' W 028°30'1919.3
2014-Nov-08 16:33N 36°10' W 028°53'2019.7
2014-Nov-08 15:33N 36°10' W 029°18'2019.5
2014-Nov-08 14:33N 36°10' W 029°42'2020.1
2014-Nov-08 13:33N 36°11' W 030°07'2119.7
2014-Nov-08 12:30N 36°11' W 030°32'8119.0
2014-Nov-08 08:16N 36°13' W 032°12'10718.4
2014-Nov-08 02:27N 36°14' W 034°25'5718.4
2014-Nov-07 23:22N 36°14' W 035°35'2118.1
2014-Nov-07 22:11N 36°15' W 036°02'  
Track history (hours):
 
Tides and Currents Weather Stations Pressure Air Temp Water Temp Dewpoint Dewpoint Depression Visibility Wind Speed Wind Dir Waves Ship Positions

OOCL Kaohsiung

Last reported at 2014-Nov-14 12:33 UTC. Time now 2014-Nov-28 12:03 UTC.
Position N 36°32' E 014°20'.
Warning: this ship's position is 13 days out of date.

Length 280 m; draft 12.6 m.

Type: Cargo ship. MMSI: 566389000.

Date/timePositionNaut miles runAvg speedWind from/ knotsBaromVisibWave heightAir tempDewpointWater temp
2014-Nov-14 12:33N 36°32' E 014°20'2020.2
2014-Nov-14 11:33N 36°41' E 013°58'2020.4
2014-Nov-14 10:33N 36°51' E 013°36'22619.8
2014-Nov-13 23:10N 38°51' E 009°34'1219.4
2014-Nov-13 22:33N 38°57' E 009°21'1615.7
2014-Nov-13 21:33N 39°08' E 009°05'5 5.0
2014-Nov-13 20:31N 39°13' E 009°04'0 0.0
2014-Nov-13 19:31N 39°13' E 009°04'0 0.0
2014-Nov-13 18:33N 39°13' E 009°04'0 0.0
2014-Nov-13 17:33N 39°13' E 009°04'0 0.0
2014-Nov-13 16:33N 39°13' E 009°04'0 0.0
2014-Nov-13 15:33N 39°13' E 009°04'0 0.0
2014-Nov-13 14:33N 39°13' E 009°04'0 0.0
2014-Nov-13 13:33N 39°13' E 009°04'0 0.0
2014-Nov-13 12:33N 39°13' E 009°04'0 0.0
2014-Nov-13 11:33N 39°13' E 009°04'0 0.0
2014-Nov-13 10:33N 39°13' E 009°04'0 0.0
2014-Nov-13 09:33N 39°13' E 009°04'0 0.0
2014-Nov-13 08:33N 39°13' E 009°04'0 0.0
2014-Nov-13 07:33N 39°13' E 009°04'0 0.0
2014-Nov-13 06:33N 39°13' E 009°04'0 0.0
2014-Nov-13 05:33N 39°13' E 009°04'0 0.0
2014-Nov-13 04:33N 39°13' E 009°04'0 0.1
2014-Nov-13 03:33N 39°13' E 009°04'4 4.4
2014-Nov-13 02:33N 39°09' E 009°05'10 9.6
2014-Nov-13 01:33N 38°59' E 009°06'1312.6
2014-Nov-13 00:32N 38°49' E 008°56'1413.7
2014-Nov-12 23:33N 38°45' E 008°39'68816.4
2014-Nov-11 05:33N 35°59' W 005°21'3020.2
2014-Nov-11 04:03N 35°54' W 005°58'84218.5
2014-Nov-09 06:33N 36°07' W 023°19'2019.6
2014-Nov-09 05:33N 36°07' W 023°43'2019.8
2014-Nov-09 04:33N 36°07' W 024°07'2019.5
2014-Nov-09 03:33N 36°07' W 024°32'2019.6
2014-Nov-09 02:33N 36°07' W 024°56'1919.5
2014-Nov-09 01:33N 36°07' W 025°20'1919.3
2014-Nov-09 00:33N 36°08' W 025°44'1919.3
2014-Nov-08 23:33N 36°08' W 026°08'1919.1
2014-Nov-08 22:33N 36°09' W 026°31'1919.0
2014-Nov-08 21:33N 36°10' W 026°55'1919.1
2014-Nov-08 20:33N 36°10' W 027°19'1919.0
2014-Nov-08 19:33N 36°09' W 027°42'1918.9
2014-Nov-08 18:33N 36°09' W 028°06'2019.3
2014-Nov-08 17:32N 36°10' W 028°30'1919.3
2014-Nov-08 16:33N 36°10' W 028°53'2019.7
2014-Nov-08 15:33N 36°10' W 029°18'2019.5
2014-Nov-08 14:33N 36°10' W 029°42'2020.1
2014-Nov-08 13:33N 36°11' W 030°07'2119.7
2014-Nov-08 12:30N 36°11' W 030°32'8119.0
2014-Nov-08 08:16N 36°13' W 032°12'10718.4
2014-Nov-08 02:27N 36°14' W 034°25'5718.4
2014-Nov-07 23:22N 36°14' W 035°35'2118.1
2014-Nov-07 22:11N 36°15' W 036°02'  

Dump ship's entire track history